Time;durP1;ratioP1;P1;durP2;ratioP2;P2;SDS_P1;SDS_P2;PMS_P1;PMS_P2;Temp;Humidity;BMP_temperature;BMP_pressure;BME280_temperature;BME280_humidity;BME280_pressure;Samples;Min_cycle;Max_cycle;Signal;HPM_P1;HPM_P2
2022/08/01 00:01:24;;;;;;;5.60;3.08;;;18.10;99.90;;;;;;5034577;28;20052;-71
2022/08/01 00:03:50;;;;;;;4.55;3.30;;;18.10;99.90;;;;;;5034578;28;20127;-71
2022/08/01 00:06:15;;;;;;;6.28;3.20;;;18.10;99.90;;;;;;5034390;28;20057;-70
2022/08/01 00:08:41;;;;;;;5.20;2.58;;;18.10;99.90;;;;;;5034799;28;20385;-70
2022/08/01 00:11:08;;;;;;;4.05;2.70;;;18.10;99.90;;;;;;5034008;28;20099;-71
2022/08/01 00:13:34;;;;;;;5.00;2.92;;;18.10;99.90;;;;;;5034663;28;20045;-70
2022/08/01 00:16:00;;;;;;;4.28;2.80;;;18.10;99.90;;;;;;5016991;28;20366;-70
2022/08/01 00:18:26;;;;;;;4.30;2.65;;;18.10;99.90;;;;;;5034037;28;20037;-71
2022/08/01 00:20:52;;;;;;;4.82;3.28;;;18.10;99.90;;;;;;5034030;28;20128;-71
2022/08/01 00:23:17;;;;;;;4.80;3.20;;;18.10;99.90;;;;;;5016556;28;20084;-71
2022/08/01 00:25:43;;;;;;;5.00;3.20;;;18.10;99.90;;;;;;5033667;28;20490;-70
2022/08/01 00:28:09;;;;;;;5.28;3.50;;;18.10;99.90;;;;;;5034474;28;20378;-71
2022/08/01 00:30:35;;;;;;;4.72;3.22;;;18.10;99.90;;;;;;5033650;28;20053;-70
2022/08/01 00:33:02;;;;;;;6.03;3.65;;;18.10;99.90;;;;;;5033870;28;20053;-70
2022/08/01 00:35:27;;;;;;;5.35;3.47;;;18.10;99.90;;;;;;5017242;28;20049;-71
2022/08/01 00:37:53;;;;;;;7.10;4.03;;;18.10;99.90;;;;;;5016455;28;20072;-71
2022/08/01 00:40:19;;;;;;;4.95;3.35;;;18.10;99.90;;;;;;5033798;28;20193;-71
2022/08/01 00:42:44;;;;;;;5.32;3.53;;;18.10;99.90;;;;;;5034014;28;20511;-71
2022/08/01 00:45:11;;;;;;;6.38;3.13;;;18.10;99.90;;;;;;5033660;28;20084;-71
2022/08/01 00:47:37;;;;;;;6.40;3.83;;;18.10;99.90;;;;;;5032765;28;20348;-71
2022/08/01 00:50:07;;;;;;;5.93;3.42;;;18.00;99.90;;;;;;5033600;28;20146;-71
2022/08/01 00:52:33;;;;;;;5.60;3.45;;;18.00;99.90;;;;;;5015895;28;20060;-71
2022/08/01 00:54:59;;;;;;;7.25;3.50;;;18.00;99.90;;;;;;5033552;28;20045;-71
2022/08/01 00:57:25;;;;;;;4.47;3.15;;;18.00;99.90;;;;;;5033474;28;20053;-71
2022/08/01 00:59:52;;;;;;;4.95;3.50;;;18.00;99.90;;;;;;5016014;28;20057;-71
2022/08/01 01:02:18;;;;;;;6.75;3.38;;;18.00;99.90;;;;;;5033978;28;20091;-71
2022/08/01 01:04:44;;;;;;;9.27;3.80;;;17.90;99.90;;;;;;5033392;28;20077;-71
2022/08/01 01:07:21;;;;;;;5.70;3.75;;;17.90;99.90;;;;;;5033842;28;20117;-71
2022/08/01 01:10:29;;;;;;;5.60;3.70;;;17.90;99.90;;;;;;5034159;28;20052;-71
2022/08/01 01:13:16;;;;;;;7.25;3.60;;;17.90;99.90;;;;;;5028942;28;20049;-72
2022/08/01 01:15:58;;;;;;;5.55;4.03;;;17.80;99.90;;;;;;5033371;28;20046;-71
2022/08/01 01:18:35;;;;;;;6.05;4.35;;;17.90;99.90;;;;;;5016126;28;20053;-71
2022/08/01 01:21:16;;;;;;;8.65;4.65;;;17.80;99.90;;;;;;5033226;28;20073;-71
2022/08/01 01:24:09;;;;;;;6.25;4.03;;;17.90;99.90;;;;;;5032801;28;20037;-71
2022/08/01 01:26:49;;;;;;;7.07;4.30;;;17.90;99.90;;;;;;5033524;28;20136;-71
2022/08/01 01:29:32;;;;;;;7.72;4.10;;;17.80;99.90;;;;;;5033621;28;20375;-71
2022/08/01 01:32:09;;;;;;;7.15;3.30;;;17.80;99.90;;;;;;5033147;28;20121;-71
2022/08/01 01:34:39;;;;;;;6.78;3.97;;;17.80;99.90;;;;;;5033047;28;20051;-71
2022/08/01 01:37:16;;;;;;;6.15;3.90;;;17.80;99.90;;;;;;5015928;28;20049;-71
2022/08/01 01:39:42;;;;;;;7.18;3.83;;;17.70;99.90;;;;;;5033097;28;20049;-71
2022/08/01 01:42:09;;;;;;;7.03;4.00;;;17.70;99.90;;;;;;5033024;28;20084;-71
2022/08/01 01:44:37;;;;;;;6.00;3.78;;;17.70;99.90;;;;;;5033004;28;20049;-71
2022/08/01 01:47:04;;;;;;;9.73;4.05;;;17.70;99.90;;;;;;5033497;28;20060;-71
2022/08/01 01:49:31;;;;;;;5.55;3.28;;;17.70;99.90;;;;;;5032994;28;20049;-71
2022/08/01 01:52:00;;;;;;;5.97;3.63;;;17.70;99.90;;;;;;5032870;28;20053;-71
2022/08/01 01:54:31;;;;;;;7.07;4.00;;;17.70;99.90;;;;;;5015334;28;20042;-72
2022/08/01 01:56:59;;;;;;;5.18;3.67;;;17.70;99.90;;;;;;5033538;28;20132;-70
2022/08/01 01:59:29;;;;;;;5.78;3.40;;;17.70;99.90;;;;;;5035285;28;20142;-71
2022/08/01 02:01:58;;;;;;;7.13;3.72;;;17.70;99.90;;;;;;5037472;28;20075;-71
2022/08/01 02:04:26;;;;;;;6.18;3.75;;;17.70;99.90;;;;;;5036663;28;20046;-71
2022/08/01 02:06:53;;;;;;;7.47;3.72;;;17.70;99.90;;;;;;5037158;28;20056;-71
2022/08/01 02:09:21;;;;;;;6.65;3.90;;;17.70;99.90;;;;;;5037054;28;20135;-71
2022/08/01 02:11:48;;;;;;;7.13;3.85;;;17.80;99.90;;;;;;5036810;28;20402;-71
2022/08/01 02:14:16;;;;;;;6.35;4.00;;;17.70;99.90;;;;;;5036410;28;20433;-72
2022/08/01 02:16:46;;;;;;;6.85;3.92;;;17.70;99.90;;;;;;5036964;28;20048;-71
2022/08/01 02:19:12;;;;;;;6.03;3.67;;;17.70;99.90;;;;;;5036386;28;20057;-71
2022/08/01 02:21:43;;;;;;;6.75;3.50;;;17.70;99.90;;;;;;5018534;28;20056;-71
2022/08/01 02:24:24;;;;;;;5.72;3.65;;;17.70;99.90;;;;;;5019103;28;20053;-71
2022/08/01 02:26:54;;;;;;;4.20;2.92;;;17.80;99.90;;;;;;5036859;28;20372;-71
2022/08/01 02:29:27;;;;;;;3.88;2.88;;;17.70;99.90;;;;;;5036495;28;20402;-71
2022/08/01 02:31:54;;;;;;;4.68;2.95;;;17.80;99.90;;;;;;5019050;28;20053;-71
2022/08/01 02:34:22;;;;;;;4.00;2.75;;;17.80;99.90;;;;;;5036852;28;20185;-71
2022/08/01 02:36:49;;;;;;;6.07;3.00;;;17.80;99.90;;;;;;5036117;28;20053;-70
2022/08/01 02:39:17;;;;;;;4.22;2.40;;;17.80;99.90;;;;;;5035720;28;20486;-71
2022/08/01 02:41:48;;;;;;;4.65;2.60;;;17.80;99.90;;;;;;5035961;28;20057;-70
2022/08/01 02:44:24;;;;;;;5.15;2.50;;;17.80;99.90;;;;;;5036078;28;20045;-71
2022/08/01 02:46:52;;;;;;;;;;;17.80;99.90;;;;;;5036428;28;20080;-70
2022/08/01 02:49:20;;;;;;;2.95;1.92;;;17.80;99.90;;;;;;5035881;28;19921;-70
2022/08/01 02:51:48;;;;;;;3.92;2.42;;;17.80;99.90;;;;;;5035724;28;20394;-71
2022/08/01 02:54:17;;;;;;;3.92;1.92;;;17.80;99.90;;;;;;5035740;28;20129;-70
2022/08/01 02:56:44;;;;;;;3.15;2.15;;;17.80;99.90;;;;;;5018247;28;20493;-70
2022/08/01 02:59:16;;;;;;;3.58;2.20;;;17.80;99.90;;;;;;5035630;28;20053;-70
2022/08/01 03:01:44;;;;;;;5.57;1.98;;;17.70;99.90;;;;;;5035598;28;20502;-70
2022/08/01 03:04:12;;;;;;;4.50;1.90;;;17.70;99.90;;;;;;5035900;28;20052;-70
2022/08/01 03:06:38;;;;;;;3.92;1.77;;;17.70;99.90;;;;;;5035980;28;20124;-69
2022/08/01 03:09:05;;;;;;;3.97;1.92;;;17.70;99.90;;;;;;5018221;28;20129;-70
2022/08/01 03:11:33;;;;;;;2.47;1.70;;;17.70;99.90;;;;;;5034441;28;20053;-70
2022/08/01 03:14:04;;;;;;;5.90;2.03;;;17.70;99.90;;;;;;5035373;28;20080;-70
2022/08/01 03:16:33;;;;;;;2.90;1.88;;;17.60;99.90;;;;;;5035668;28;20053;-70
2022/08/01 03:19:01;;;;;;;5.15;1.98;;;17.60;99.90;;;;;;5018070;28;20057;-70
2022/08/01 03:21:28;;;;;;;3.13;1.58;;;17.60;99.90;;;;;;5035247;28;20046;-70
2022/08/01 03:23:57;;;;;;;3.30;1.50;;;17.60;99.90;;;;;;5035241;28;20098;-70
2022/08/01 03:26:27;;;;;;;3.75;1.40;;;17.60;99.90;;;;;;5036169;28;20100;-70
2022/08/01 03:28:56;;;;;;;3.17;1.52;;;17.60;99.90;;;;;;5035421;28;20053;-70
2022/08/01 03:31:23;;;;;;;3.78;1.40;;;17.60;99.90;;;;;;5035415;28;20056;-70
2022/08/01 03:33:49;;;;;;;3.13;1.50;;;17.60;99.90;;;;;;5035503;28;20197;-70
2022/08/01 03:36:17;;;;;;;3.45;1.23;;;17.60;99.90;;;;;;5034975;28;20045;-71
2022/08/01 03:38:46;;;;;;;2.60;1.23;;;17.50;99.90;;;;;;5018178;28;20076;-70
2022/08/01 03:41:16;;;;;;;2.33;1.42;;;17.50;99.90;;;;;;5034841;28;20052;-70
2022/08/01 03:44:01;;;;;;;2.17;1.20;;;17.50;99.90;;;;;;5018201;28;20045;-70
2022/08/01 03:46:36;;;;;;;1.80;1.00;;;17.50;99.90;;;;;;5035611;28;20052;-70
2022/08/01 03:49:10;;;;;;;4.40;1.50;;;17.50;99.90;;;;;;5034758;28;20045;-70
2022/08/01 03:51:38;;;;;;;3.30;1.85;;;17.50;99.90;;;;;;5034472;28;20060;-70
2022/08/01 03:54:04;;;;;;;2.03;1.35;;;17.50;99.90;;;;;;5034046;28;20133;-70
2022/08/01 03:56:32;;;;;;;3.17;1.45;;;17.50;99.90;;;;;;5034496;28;20049;-70
2022/08/01 03:59:00;;;;;;;2.60;1.15;;;17.50;99.90;;;;;;5016746;28;20045;-70
2022/08/01 04:01:27;;;;;;;4.95;1.50;;;17.50;99.90;;;;;;5034219;28;20490;-70
2022/08/01 04:03:54;;;;;;;3.55;1.52;;;17.50;99.90;;;;;;5034753;28;20100;-70
2022/08/01 04:06:20;;;;;;;2.53;1.17;;;17.40;99.90;;;;;;5017499;28;20041;-70
2022/08/01 04:08:55;;;;;;;3.38;1.20;;;17.40;99.90;;;;;;5034623;28;20046;-70
2022/08/01 04:11:25;;;;;;;2.83;1.20;;;17.50;99.90;;;;;;5034440;28;20116;-70
2022/08/01 04:13:52;;;;;;;2.60;1.30;;;17.40;99.90;;;;;;5034317;28;20457;-71
2022/08/01 04:16:19;;;;;;;2.85;1.33;;;17.40;99.90;;;;;;5034228;28;20072;-70
2022/08/01 04:18:45;;;;;;;2.10;1.38;;;17.40;99.90;;;;;;5034668;28;20099;-70
2022/08/01 04:21:11;;;;;;;3.13;1.17;;;17.40;99.90;;;;;;5033859;28;20058;-70
2022/08/01 04:23:40;;;;;;;4.55;1.30;;;17.40;99.90;;;;;;5034078;28;20049;-70
2022/08/01 04:26:07;;;;;;;3.03;1.10;;;17.40;99.90;;;;;;5034041;28;20092;-71
2022/08/01 04:28:35;;;;;;;2.65;1.30;;;17.40;99.90;;;;;;5034485;28;20053;-70
2022/08/01 04:31:05;;;;;;;2.85;1.30;;;17.40;99.90;;;;;;5033935;28;20045;-70
2022/08/01 04:33:31;;;;;;;2.40;1.13;;;17.40;99.90;;;;;;5033886;28;20048;-70
2022/08/01 04:35:59;;;;;;;4.38;1.30;;;17.40;99.90;;;;;;5016108;28;20051;-69
2022/08/01 04:38:28;;;;;;;2.67;1.27;;;17.40;99.90;;;;;;5016908;28;20423;-70
2022/08/01 04:40:56;;;;;;;3.97;1.35;;;17.40;99.90;;;;;;5033781;28;20107;-70
2022/08/01 04:43:22;;;;;;;3.78;1.45;;;17.40;99.90;;;;;;5033677;28;20041;-70
2022/08/01 04:45:50;;;;;;;2.25;1.20;;;17.40;99.90;;;;;;5033693;28;20128;-70
2022/08/01 04:48:19;;;;;;;3.00;1.27;;;17.40;99.90;;;;;;5033637;28;20116;-70
2022/08/01 04:50:45;;;;;;;3.00;1.02;;;17.40;99.90;;;;;;5016083;28;20080;-70
2022/08/01 04:53:16;;;;;;;3.33;1.30;;;17.40;99.90;;;;;;5033451;28;20076;-70
2022/08/01 04:55:43;;;;;;;4.80;1.35;;;17.40;99.90;;;;;;5033794;28;20042;-70
2022/08/01 04:58:10;;;;;;;2.00;1.13;;;17.40;99.90;;;;;;5015852;28;20053;-70
2022/08/01 05:00:36;;;;;;;2.30;1.30;;;17.40;99.90;;;;;;5033439;28;20053;-70
2022/08/01 05:03:02;;;;;;;5.53;1.30;;;17.40;99.90;;;;;;5033895;28;20049;-70
2022/08/01 05:05:28;;;;;;;2.92;1.35;;;17.40;99.90;;;;;;5016039;28;20096;-70
2022/08/01 05:07:53;;;;;;;2.10;1.20;;;17.40;99.90;;;;;;5033354;28;20114;-70
2022/08/01 05:10:19;;;;;;;2.42;1.20;;;17.40;99.90;;;;;;5033301;28;20049;-70
2022/08/01 05:12:46;;;;;;;4.00;1.50;;;17.40;99.90;;;;;;5033232;28;20049;-70
2022/08/01 05:15:12;;;;;;;3.47;1.35;;;17.40;99.90;;;;;;5016019;28;20478;-70
2022/08/01 05:17:37;;;;;;;2.30;1.30;;;17.40;99.90;;;;;;5033260;28;20056;-70
2022/08/01 05:20:06;;;;;;;5.47;1.67;;;17.40;99.90;;;;;;5033177;28;20049;-70
2022/08/01 05:22:31;;;;;;;4.57;1.50;;;17.40;99.90;;;;;;5033112;28;20500;-70
2022/08/01 05:24:59;;;;;;;3.88;1.40;;;17.40;99.90;;;;;;5033274;28;20137;-70
2022/08/01 05:27:25;;;;;;;3.92;1.50;;;17.40;99.90;;;;;;5015596;28;20049;-70
2022/08/01 05:29:51;;;;;;;3.03;1.50;;;17.40;99.90;;;;;;5033048;28;20132;-70
2022/08/01 05:32:17;;;;;;;4.13;1.67;;;17.30;99.90;;;;;;5033065;28;20120;-70
2022/08/01 05:34:43;;;;;;;4.18;1.60;;;17.40;99.90;;;;;;5036570;28;20045;-70
2022/08/01 05:37:10;;;;;;;3.90;1.67;;;17.30;99.90;;;;;;5036935;28;20107;-70
2022/08/01 05:39:36;;;;;;;3.47;1.60;;;17.30;99.90;;;;;;5037115;28;20053;-70
2022/08/01 05:42:02;;;;;;;4.72;1.90;;;17.30;99.90;;;;;;5037129;28;20053;-70
2022/08/01 05:44:27;;;;;;;4.55;1.80;;;17.30;99.90;;;;;;5037506;28;20041;-70
2022/08/01 05:46:53;;;;;;;5.05;1.90;;;17.20;99.90;;;;;;5037022;28;20406;-70
2022/08/01 05:49:19;;;;;;;5.32;2.17;;;17.20;99.90;;;;;;5036898;28;20474;-70
2022/08/01 05:51:45;;;;;;;4.18;1.67;;;17.20;99.90;;;;;;5037290;28;20103;-70
2022/08/01 05:54:10;;;;;;;7.18;1.80;;;17.20;99.90;;;;;;5036789;28;20049;-70
2022/08/01 05:56:36;;;;;;;3.38;1.77;;;17.20;99.90;;;;;;5019349;28;20443;-70
2022/08/01 05:59:02;;;;;;;3.90;1.65;;;17.30;99.90;;;;;;5019339;28;20041;-70
2022/08/01 06:01:27;;;;;;;4.53;1.75;;;17.30;99.90;;;;;;5036756;28;20045;-70
2022/08/01 06:03:54;;;;;;;3.00;1.55;;;17.40;99.90;;;;;;5036619;28;20099;-70
2022/08/01 06:06:20;;;;;;;3.65;1.98;;;17.40;99.90;;;;;;5036574;28;20490;-70
2022/08/01 06:08:46;;;;;;;4.72;1.90;;;17.40;99.90;;;;;;5019236;28;20046;-70
2022/08/01 06:11:12;;;;;;;5.97;2.10;;;17.40;99.90;;;;;;5036906;28;20548;-71
2022/08/01 06:13:38;;;;;;;6.00;1.77;;;17.40;99.90;;;;;;5036410;28;20041;-64
2022/08/01 06:16:04;;;;;;;3.60;2.00;;;17.30;99.90;;;;;;5036584;28;20536;-64
2022/08/01 06:18:30;;;;;;;8.18;1.92;;;17.30;99.90;;;;;;5036442;28;20041;-65
2022/08/01 06:20:55;;;;;;;5.00;2.17;;;17.40;99.90;;;;;;5036317;28;20123;-64
2022/08/01 06:23:21;;;;;;;5.68;2.05;;;17.40;99.90;;;;;;5036314;28;20053;-65
2022/08/01 06:25:47;;;;;;;4.88;1.75;;;17.40;99.90;;;;;;5036639;28;20101;-64
2022/08/01 06:28:13;;;;;;;5.78;2.05;;;17.40;99.90;;;;;;5036018;28;20469;-64
2022/08/01 06:30:39;;;;;;;7.65;1.67;;;17.40;99.90;;;;;;5036231;28;20045;-66
2022/08/01 06:33:05;;;;;;;5.65;1.55;;;17.40;99.90;;;;;;5036167;28;20045;-66
2022/08/01 06:35:30;;;;;;;5.32;1.38;;;17.40;99.90;;;;;;5036064;28;20056;-65
2022/08/01 06:37:57;;;;;;;6.32;1.77;;;17.50;99.90;;;;;;5035970;28;20466;-65
2022/08/01 06:40:23;;;;;;;6.72;2.00;;;17.50;99.90;;;;;;5035667;28;20508;-65
2022/08/01 06:42:49;;;;;;;5.13;1.67;;;17.50;99.90;;;;;;5035954;28;20056;-65
2022/08/01 06:45:15;;;;;;;6.82;2.05;;;17.50;99.90;;;;;;5019088;28;20414;-65
2022/08/01 06:47:42;;;;;;;6.57;1.70;;;17.60;99.90;;;;;;5035940;28;20050;-65
2022/08/01 06:50:09;;;;;;;5.13;2.30;;;17.60;99.90;;;;;;5035520;28;20073;-66
2022/08/01 06:52:35;;;;;;;7.95;2.05;;;17.70;99.90;;;;;;5018683;28;20107;-65
2022/08/01 06:55:02;;;;;;;6.05;2.00;;;17.70;99.90;;;;;;5035731;28;20048;-65
2022/08/01 06:57:28;;;;;;;8.52;2.00;;;17.70;99.90;;;;;;5035742;28;20084;-65
2022/08/01 06:59:54;;;;;;;5.82;2.15;;;17.70;99.90;;;;;;5035577;28;20497;-65
2022/08/01 07:02:20;;;;;;;6.43;1.95;;;17.70;99.90;;;;;;5035857;28;20402;-65
2022/08/01 07:04:45;;;;;;;6.10;1.88;;;17.80;99.90;;;;;;5035542;28;20528;-65
2022/08/01 07:07:11;;;;;;;7.90;1.98;;;17.70;99.90;;;;;;5018445;28;20053;-65
2022/08/01 07:09:37;;;;;;;6.97;1.90;;;17.80;99.90;;;;;;5035469;28;20052;-65
2022/08/01 07:12:03;;;;;;;5.53;1.90;;;17.80;99.90;;;;;;5035487;28;20135;-65
2022/08/01 07:14:29;;;;;;;6.40;1.50;;;17.80;99.90;;;;;;5035364;28;20041;-65
2022/08/01 07:16:55;;;;;;;6.80;1.77;;;17.90;99.90;;;;;;5035297;28;20622;-65
2022/08/01 07:19:21;;;;;;;6.97;1.88;;;17.90;99.90;;;;;;5035517;28;20041;-65
2022/08/01 07:21:46;;;;;;;5.53;1.95;;;17.90;99.90;;;;;;5034392;28;20088;-65
2022/08/01 07:24:13;;;;;;;6.90;1.90;;;17.90;99.90;;;;;;5018409;28;20357;-65
2022/08/01 07:26:47;;;;;;;5.25;1.80;;;17.90;99.90;;;;;;5035728;28;20406;-65
2022/08/01 07:29:13;;;;;;;5.35;2.10;;;18.00;99.90;;;;;;5017873;28;20051;-65
2022/08/01 07:31:41;;;;;;;7.68;1.92;;;18.00;99.90;;;;;;5034985;28;20390;-66
2022/08/01 07:34:07;;;;;;;5.25;2.10;;;17.90;99.90;;;;;;5034932;28;20068;-66
2022/08/01 07:36:32;;;;;;;8.63;2.10;;;18.00;99.90;;;;;;5034597;28;20486;-66
2022/08/01 07:38:58;;;;;;;7.50;2.00;;;18.00;99.90;;;;;;5034920;28;20060;-65
2022/08/01 07:41:24;;;;;;;7.07;1.85;;;18.10;99.90;;;;;;5035386;28;20053;-65
2022/08/01 07:43:50;;;;;;;8.25;1.95;;;18.10;99.90;;;;;;5016804;28;20076;-65
2022/08/01 07:46:16;;;;;;;5.40;1.90;;;18.10;99.90;;;;;;5034525;28;20506;-66
2022/08/01 07:48:42;;;;;;;8.95;1.95;;;18.10;99.90;;;;;;5034714;28;20046;-65
2022/08/01 07:51:10;;;;;;;4.90;1.90;;;18.10;99.90;;;;;;5034555;28;20085;-65
2022/08/01 07:53:35;;;;;;;6.93;2.28;;;18.20;99.90;;;;;;5034769;28;20057;-65
2022/08/01 07:56:02;;;;;;;4.93;1.73;;;18.20;99.90;;;;;;5016743;28;20045;-65
2022/08/01 07:58:28;;;;;;;6.22;1.90;;;18.10;99.90;;;;;;5034474;28;20069;-66
2022/08/01 08:00:53;;;;;;;5.72;1.52;;;18.10;99.90;;;;;;5035322;28;20045;-66
2022/08/01 08:03:19;;;;;;;7.47;1.80;;;18.10;99.90;;;;;;5034717;28;20525;-66
2022/08/01 08:05:45;;;;;;;7.43;1.85;;;18.10;99.90;;;;;;5016932;28;20482;-66
2022/08/01 08:08:11;;;;;;;8.35;2.10;;;18.10;99.90;;;;;;5034428;28;20378;-66
2022/08/01 08:10:36;;;;;;;6.05;2.13;;;18.10;99.90;;;;;;5034603;28;20107;-66
2022/08/01 08:13:02;;;;;;;5.88;1.70;;;18.10;99.90;;;;;;5034264;28;20497;-66
2022/08/01 08:15:29;;;;;;;6.32;2.10;;;18.00;99.90;;;;;;5034667;28;20045;-65
2022/08/01 08:17:55;;;;;;;6.75;1.88;;;18.00;99.90;;;;;;5034205;28;20060;-66
2022/08/01 08:20:26;;;;;;;3.67;1.70;;;18.00;99.90;;;;;;5034031;28;20049;-65
2022/08/01 08:22:52;;;;;;;6.22;1.80;;;18.00;99.90;;;;;;5034572;28;20049;-66
2022/08/01 08:25:21;;;;;;;8.07;2.03;;;18.00;99.90;;;;;;5011406;28;20069;-65
2022/08/01 08:27:47;;;;;;;4.50;1.52;;;18.10;99.90;;;;;;5014331;28;20061;-66
2022/08/01 08:30:14;;;;;;;6.25;1.70;;;18.10;99.90;;;;;;5014341;28;20458;-65
2022/08/01 08:32:40;;;;;;;5.43;1.88;;;18.00;99.90;;;;;;5014217;28;20120;-66
2022/08/01 08:35:07;;;;;;;5.63;1.80;;;18.10;99.90;;;;;;5013828;28;20522;-65
2022/08/01 08:37:34;;;;;;;6.63;1.92;;;18.10;99.90;;;;;;5014693;28;20051;-66
2022/08/01 08:40:00;;;;;;;5.63;1.85;;;18.20;99.90;;;;;;5014134;28;20046;-66
2022/08/01 08:42:26;;;;;;;4.57;1.80;;;18.30;99.90;;;;;;5014088;28;20084;-66
2022/08/01 08:44:54;;;;;;;7.72;2.10;;;18.40;99.90;;;;;;5013763;28;20502;-66
2022/08/01 08:47:21;;;;;;;4.75;1.90;;;18.40;99.90;;;;;;5014597;28;20121;-66
2022/08/01 08:49:49;;;;;;;7.57;2.22;;;18.40;99.90;;;;;;5013972;28;20042;-66
2022/08/01 08:52:17;;;;;;;6.22;1.65;;;18.40;99.90;;;;;;5013886;28;20104;-66
2022/08/01 08:54:44;;;;;;;4.97;1.90;;;18.40;99.90;;;;;;5013863;28;20041;-66
2022/08/01 08:57:12;;;;;;;7.70;1.90;;;18.50;99.90;;;;;;5012649;28;20046;-66
2022/08/01 08:59:39;;;;;;;5.07;1.95;;;18.50;99.90;;;;;;5013773;28;20561;-66
2022/08/01 09:02:05;;;;;;;5.20;1.90;;;18.50;99.90;;;;;;5013575;28;20042;-66
2022/08/01 09:04:31;;;;;;;5.85;1.73;;;18.50;99.90;;;;;;5012836;28;20119;-66
2022/08/01 09:06:57;;;;;;;5.85;1.65;;;18.60;99.90;;;;;;5012777;28;20545;-66
2022/08/01 09:09:23;;;;;;;5.60;2.30;;;18.60;99.90;;;;;;5013187;28;20038;-66
2022/08/01 09:11:48;;;;;;;6.55;2.10;;;18.60;99.90;;;;;;5012372;28;20497;-65
2022/08/01 09:14:23;;;;;;;5.88;2.00;;;18.60;99.90;;;;;;5014107;28;20037;-65
2022/08/01 09:17:10;;;;;;;6.05;1.80;;;18.60;99.90;;;;;;5013722;28;20048;-66
2022/08/01 09:19:41;;;;;;;6.93;1.70;;;18.70;99.90;;;;;;5014195;28;20050;-66
2022/08/01 09:22:13;;;;;;;5.88;1.88;;;18.80;99.90;;;;;;5013706;28;20311;-65
2022/08/01 09:24:40;;;;;;;6.53;1.70;;;18.90;99.90;;;;;;5014123;28;20077;-66
2022/08/01 09:27:20;;;;;;;5.13;1.70;;;18.90;99.90;;;;;;5015545;28;20041;-65
2022/08/01 09:29:46;;;;;;;5.50;1.65;;;18.90;99.90;;;;;;5033262;28;20033;-66
2022/08/01 09:32:12;;;;;;;6.85;2.25;;;19.00;99.90;;;;;;5033444;28;20042;-66
2022/08/01 09:34:38;;;;;;;6.55;1.67;;;19.00;99.90;;;;;;5015417;28;20041;-66
2022/08/01 09:37:05;;;;;;;5.78;1.55;;;19.10;99.90;;;;;;5033047;28;20038;-66
2022/08/01 09:39:37;;;;;;;7.22;1.60;;;19.20;99.90;;;;;;5033090;28;20065;-66
2022/08/01 09:42:20;;;;;;;5.93;1.40;;;19.40;99.90;;;;;;5032780;28;20478;-66
2022/08/01 09:44:46;;;;;;;5.18;1.42;;;19.50;99.90;;;;;;5033787;28;20431;-66
2022/08/01 09:47:13;;;;;;;4.53;1.40;;;19.60;99.90;;;;;;5033741;28;20085;-66
2022/08/01 09:49:41;;;;;;;7.10;1.70;;;19.80;99.90;;;;;;5032629;28;20518;-66
2022/08/01 09:52:17;;;;;;;4.13;1.63;;;20.00;99.90;;;;;;5032880;28;20037;-66
2022/08/01 09:54:51;;;;;;;4.60;1.45;;;20.10;99.90;;;;;;5032870;28;20037;-66
2022/08/01 09:57:19;;;;;;;5.97;1.70;;;20.10;99.90;;;;;;5032973;28;20128;-66
2022/08/01 09:59:48;;;;;;;4.30;1.50;;;20.10;99.90;;;;;;4999209;28;20050;-66
2022/08/01 10:02:30;;;;;;;5.10;1.45;;;20.10;99.90;;;;;;5033342;28;20041;-67
2022/08/01 10:04:56;;;;;;;5.07;1.52;;;20.10;99.90;;;;;;5033296;28;20071;-68
2022/08/01 10:07:22;;;;;;;4.20;1.30;;;20.10;99.90;;;;;;5032910;28;20481;-66
2022/08/01 10:09:48;;;;;;;5.55;1.40;;;20.10;99.90;;;;;;5032460;28;20052;-66
2022/08/01 10:12:18;;;;;;;4.30;1.20;;;20.00;99.90;;;;;;5032830;28;20123;-66
2022/08/01 10:14:49;;;;;;;7.30;1.45;;;20.00;99.90;;;;;;5032332;28;20482;-66
2022/08/01 10:17:17;;;;;;;5.20;1.20;;;19.90;99.90;;;;;;5033077;28;20041;-66
2022/08/01 10:19:44;;;;;;;4.13;1.35;;;20.10;99.90;;;;;;5033962;28;20128;-66
2022/08/01 10:22:17;;;;;;;5.05;1.75;;;20.20;99.90;;;;;;5018926;28;20512;-66
2022/08/01 10:24:46;;;;;;;4.65;1.40;;;20.30;99.90;;;;;;5019080;28;20095;-66
2022/08/01 10:27:14;;;;;;;3.10;1.30;;;20.30;99.90;;;;;;5019708;28;20065;-66
2022/08/01 10:29:42;;;;;;;3.95;1.15;;;20.20;99.90;;;;;;5036942;28;20049;-66
2022/08/01 10:32:09;;;;;;;5.97;2.00;;;20.10;99.90;;;;;;5036007;28;20504;-66
2022/08/01 10:34:37;;;;;;;4.03;1.20;;;20.10;99.90;;;;;;5036173;28;20087;-67
2022/08/01 10:37:04;;;;;;;3.03;1.20;;;20.10;99.90;;;;;;5036217;28;20132;-67
2022/08/01 10:39:31;;;;;;;5.00;1.48;;;20.10;99.90;;;;;;5036439;28;20347;-67
2022/08/01 10:41:58;;;;;;;5.28;1.70;;;20.20;99.90;;;;;;5036044;28;20121;-67
2022/08/01 10:44:26;;;;;;;3.40;1.33;;;20.30;99.90;;;;;;5036830;28;20037;-67
2022/08/01 10:46:59;;;;;;;7.55;2.00;;;20.30;99.90;;;;;;5036528;28;20042;-67
2022/08/01 10:49:29;;;;;;;6.97;1.23;;;20.30;99.90;;;;;;5035968;28;20092;-67
2022/08/01 10:51:56;;;;;;;7.78;1.25;;;20.30;99.90;;;;;;5035821;28;20458;-67
2022/08/01 10:54:25;;;;;;;3.20;1.05;;;20.30;99.90;;;;;;5035761;28;20041;-67
2022/08/01 10:56:52;;;;;;;6.47;1.40;;;20.30;99.90;;;;;;5035804;28;20045;-67
2022/08/01 10:59:29;;;;;;;3.45;1.20;;;20.20;99.90;;;;;;5035864;28;20382;-67
2022/08/01 11:01:59;;;;;;;4.35;1.15;;;20.30;99.90;;;;;;5035755;28;20057;-67
2022/08/01 11:04:41;;;;;;;3.30;1.15;;;20.40;99.90;;;;;;5018247;28;20049;-67
2022/08/01 11:07:13;;;;;;;3.33;1.13;;;20.40;99.90;;;;;;5035967;28;20041;-68
2022/08/01 11:09:42;;;;;;;2.58;1.17;;;20.40;99.90;;;;;;5035496;28;20537;-66
2022/08/01 11:12:16;;;;;;;4.82;1.27;;;20.40;99.90;;;;;;5035478;28;20044;-66
2022/08/01 11:15:00;;;;;;;2.60;1.10;;;20.50;99.90;;;;;;5035410;28;20049;-66
2022/08/01 11:17:49;;;;;;;4.28;1.75;;;20.50;99.90;;;;;;5035428;28;20049;-66
2022/08/01 11:20:25;;;;;;;4.97;1.30;;;20.60;99.90;;;;;;5035428;28;20446;-66
2022/08/01 11:25:37;;;;;;;4.05;1.00;;;20.40;99.90;;;;;;5017526;28;20136;-66
2022/08/01 11:28:17;;;;;;;4.47;1.30;;;20.30;99.90;;;;;;5035270;28;20049;-67
2022/08/01 11:31:14;;;;;;;4.25;1.20;;;20.20;99.90;;;;;;5017432;28;20046;-67
2022/08/01 11:33:47;;;;;;;3.85;1.20;;;20.30;99.90;;;;;;5034916;28;20041;-67
2022/08/01 11:36:13;;;;;;;3.42;1.15;;;20.40;99.90;;;;;;5035268;28;20463;-66
2022/08/01 11:38:47;;;;;;;2.92;1.10;;;20.50;99.90;;;;;;5034994;28;20052;-67
2022/08/01 11:41:30;;;;;;;5.53;1.30;;;20.70;99.90;;;;;;5034615;28;20497;-67
2022/08/01 11:43:55;;;;;;;3.90;1.17;;;20.80;99.90;;;;;;5035482;28;20051;-67
2022/08/01 11:46:49;;;;;;;4.50;1.20;;;20.70;99.90;;;;;;5017941;28;20038;-67
2022/08/01 11:49:44;;;;;;;3.60;1.08;;;20.70;99.90;;;;;;5017098;28;20037;-67
2022/08/01 11:52:24;;;;;;;2.40;0.88;;;20.70;99.90;;;;;;5035129;28;20350;-66
2022/08/01 11:54:52;;;;;;;6.25;1.30;;;20.70;99.90;;;;;;5034330;28;20462;-68
2022/08/01 11:57:24;;;;;;;3.05;1.02;;;20.70;99.90;;;;;;5034669;28;20045;-67
2022/08/01 11:59:54;;;;;;;2.70;1.00;;;20.80;99.90;;;;;;5034657;28;20045;-69
2022/08/01 12:02:31;;;;;;;3.42;1.10;;;20.90;99.90;;;;;;5034601;28;20041;-67
2022/08/01 12:05:09;;;;;;;2.95;1.08;;;20.90;99.90;;;;;;5034589;28;20041;-67
2022/08/01 12:07:36;;;;;;;3.50;1.00;;;20.90;99.90;;;;;;5000414;28;20052;-67
2022/08/01 12:10:07;;;;;;;3.13;1.23;;;20.80;99.90;;;;;;5034655;28;20116;-67
2022/08/01 12:12:34;;;;;;;2.95;0.90;;;20.80;99.90;;;;;;5034275;28;20072;-67
2022/08/01 12:15:05;;;;;;;3.85;1.00;;;20.70;99.90;;;;;;5034185;28;20077;-67
2022/08/01 12:17:39;;;;;;;2.90;0.82;;;20.70;99.90;;;;;;5034754;28;20045;-68
2022/08/01 12:20:09;;;;;;;3.38;0.90;;;20.70;99.90;;;;;;5034637;28;20037;-68
2022/08/01 12:22:35;;;;;;;2.67;0.90;;;20.60;99.90;;;;;;5016303;28;20044;-67
2022/08/01 12:25:15;;;;;;;2.45;1.05;;;20.60;99.90;;;;;;5033638;28;20374;-67
2022/08/01 12:27:43;;;;;;;4.05;0.80;;;20.60;99.90;;;;;;5033895;28;20064;-67
2022/08/01 12:30:15;;;;;;;3.80;1.10;;;20.70;99.90;;;;;;5034359;28;20077;-67
2022/08/01 12:32:42;;;;;;;5.30;1.00;;;20.80;99.90;;;;;;5016686;28;20060;-67
2022/08/01 12:35:13;;;;;;;3.00;0.80;;;20.90;99.90;;;;;;5033564;28;20490;-66
2022/08/01 12:37:44;;;;;;;3.38;1.10;;;21.00;99.90;;;;;;5033648;28;20189;-67
2022/08/01 12:40:34;;;;;;;3.97;1.05;;;21.10;99.90;;;;;;5034159;28;20103;-68
2022/08/01 12:43:03;;;;;;;2.95;0.90;;;21.00;99.90;;;;;;5024622;28;20104;-67
2022/08/01 12:45:44;;;;;;;2.88;1.00;;;20.90;99.90;;;;;;5016598;28;20120;-67
2022/08/01 12:48:15;;;;;;;3.47;0.95;;;21.00;99.90;;;;;;5033806;28;20049;-67
2022/08/01 12:50:43;;;;;;;1.95;0.88;;;21.00;99.90;;;;;;5033548;28;20056;-67
2022/08/01 12:53:10;;;;;;;3.13;0.90;;;21.00;99.90;;;;;;5033516;28;20134;-67
2022/08/01 12:55:46;;;;;;;4.93;1.30;;;20.90;99.90;;;;;;5033499;28;20040;-67
2022/08/01 12:58:14;;;;;;;2.58;0.90;;;20.90;99.90;;;;;;5033477;28;20060;-67
2022/08/01 13:00:43;;;;;;;2.30;0.90;;;20.90;99.90;;;;;;5033423;28;20124;-67